»·PEaware :: N27JP KGCN-KHII

N27JP :: KGCN-KHII

FLIGHT INFORMATION

Flight Status: Arrived
Operator: Privately registered:
United States
More flights under this callsign
Pilot: Weston J. (31543)
Aircraft: SOCATA TBM-900
(TBM9)
More flights by this aircraft type
Origin: KGCN Grand Canyon Natl Park
United States
Destination: KHII Lake Havasu City
United States
More flights between these airports :: More routes between these airports
Route: PARKS4 PGS V208 EED
File this flight plan on PilotEdge
Remarks:
Altitude:
(Current/Filed)
12,500ft
Speed:
(Current/Filed)
350kts
Departed: 31-Oct-20 07:39 PM
Arrived: 31-Oct-20 08:25 PM
Distance/Time
Traveled:
137nm/0:45
Distance/Time
To Go:
Arrived

Flight Plot

Page will automatically refresh every two minutes.

Flight plan parsing failed; only flown route is shown


Map Options




Map Legend


Flown Route
Filed Route
Departure Airport
Arrival Airport
Navaid (VOR, NDB)
Fix

Horizontal Profiles

Position Reports

Time Latitude Longitude Heading Altitude Ground
Speed
31-Oct-20 19:28 35.958902 -112.137389 336 6606ft 0kts
31-Oct-20 19:29 35.958902 -112.137389 336 6606ft 0kts
31-Oct-20 19:30 35.958902 -112.137389 336 6606ft 0kts
31-Oct-20 19:31 35.958902 -112.137389 336 6606ft 0kts
31-Oct-20 19:32 35.958902 -112.137389 336 6606ft 0kts
31-Oct-20 19:33 35.958902 -112.137389 336 6606ft 0kts
31-Oct-20 19:35 35.958902 -112.137389 336 6606ft 0kts
31-Oct-20 19:36 35.959931 -112.137206 41 6608ft 6kts
31-Oct-20 19:37 35.961016 -112.136375 332 6611ft 0kts
31-Oct-20 19:38 35.961449 -112.137227 262 6611ft 13kts
31-Oct-20 19:39 35.942887 -112.157242 222 7010ft 148kts
31-Oct-20 19:40 35.921396 -112.199994 251 7920ft 153kts
31-Oct-20 19:41 35.921761 -112.254920 287 8517ft 179kts
31-Oct-20 19:42 35.912362 -112.319967 254 9269ft 219kts
31-Oct-20 19:43 35.895203 -112.396291 254 10449ft 240kts
31-Oct-20 19:44 35.876534 -112.477591 254 11661ft 251kts
31-Oct-20 19:45 35.856890 -112.562581 254 12441ft 269kts
31-Oct-20 19:46 35.836220 -112.651614 254 13189ft 268kts
31-Oct-20 19:47 35.815599 -112.740135 254 14187ft 269kts
31-Oct-20 19:48 35.794913 -112.828603 254 15180ft 272kts
31-Oct-20 19:49 35.773719 -112.918871 254 16185ft 276kts
31-Oct-20 19:50 35.751713 -113.012278 254 16482ft 291kts
31-Oct-20 19:50 35.732652 -113.092902 254 16492ft 296kts
31-Oct-20 19:52 35.705568 -113.207007 254 16484ft 298kts
31-Oct-20 19:52 35.686059 -113.288921 254 16487ft 299kts
31-Oct-20 19:54 35.658572 -113.403679 254 16481ft 300kts
31-Oct-20 19:54 35.638838 -113.485845 254 16467ft 300kts
31-Oct-20 19:56 35.588884 -113.585586 215 16451ft 302kts
31-Oct-20 19:56 35.536072 -113.642620 220 16451ft 303kts
31-Oct-20 19:58 35.462246 -113.722256 220 16437ft 304kts
31-Oct-20 19:58 35.409780 -113.779648 220 16434ft 303kts
31-Oct-20 19:59 35.346709 -113.848404 221 16423ft 304kts
31-Oct-20 20:00 35.283388 -113.917268 221 16432ft 303kts
31-Oct-20 20:01 35.220262 -113.985729 221 16432ft 304kts
31-Oct-20 20:02 35.156893 -114.054308 221 16423ft 303kts
31-Oct-20 20:03 35.094186 -114.122027 220 15778ft 271kts
31-Oct-20 20:04 35.068369 -114.149871 220 15219ft 230kts
31-Oct-20 20:05 35.042081 -114.178187 220 14574ft 209kts
31-Oct-20 20:06 34.989788 -114.234468 220 13692ft 279kts
31-Oct-20 20:07 34.934983 -114.293310 220 12701ft 234kts
31-Oct-20 20:08 34.888393 -114.343254 220 11661ft 216kts
31-Oct-20 20:09 34.842321 -114.393090 221 9747ft 229kts
31-Oct-20 20:10 34.795551 -114.442648 220 7752ft 218kts
31-Oct-20 20:11 34.744636 -114.462122 160 6240ft 215kts
31-Oct-20 20:12 34.692174 -114.442426 172 4872ft 187kts
31-Oct-20 20:13 34.642046 -114.439485 158 3751ft 179kts
31-Oct-20 20:14 34.599893 -114.410029 127 2645ft 173kts
31-Oct-20 20:15 34.568760 -114.369825 149 2041ft 146kts
31-Oct-20 20:16 34.537986 -114.343038 99 1826ft 123kts
31-Oct-20 20:17 34.563010 -114.345404 341 1798ft 120kts
31-Oct-20 20:18 34.597765 -114.364354 332 2238ft 150kts
31-Oct-20 20:19 34.587119 -114.401681 161 1847ft 162kts
31-Oct-20 20:20 34.557867 -114.378023 142 2183ft 103kts
31-Oct-20 20:21 34.537473 -114.359620 142 1873ft 91kts
31-Oct-20 20:22 34.545421 -114.340252 336 1278ft 99kts
31-Oct-20 20:23 34.566809 -114.355319 331 771ft 46kts
31-Oct-20 20:24 34.568584 -114.357767 212 768ft 8kts
31-Oct-20 20:25 34.567670 -114.359385 238 764ft 0kts
31-Oct-20 20:26 34.567670 -114.359385 238 764ft 0kts

Navigation Log

Ident Type
Flight plan parsing failed, navigation log unavailable